createdAt,value
2023-04-23T00:01:30.229Z,54.52
2023-04-23T00:03:58.894Z,53.65
2023-04-23T00:06:26.975Z,53.83
2023-04-23T00:08:55.454Z,53.99
2023-04-23T00:11:23.587Z,54.05
2023-04-23T00:13:51.181Z,53.96
2023-04-23T00:16:19.894Z,53.10
2023-04-23T00:18:47.945Z,52.86
2023-04-23T00:21:15.554Z,53.42
2023-04-23T00:23:42.730Z,52.36
2023-04-23T00:26:10.196Z,52.22
2023-04-23T00:28:37.646Z,52.00
2023-04-23T00:31:05.736Z,51.83
2023-04-23T00:33:32.969Z,51.83
2023-04-23T00:36:00.590Z,51.70
2023-04-23T00:38:28.242Z,51.51
2023-04-23T00:40:55.943Z,51.80
2023-04-23T00:43:24.225Z,51.02
2023-04-23T00:45:52.131Z,51.66
2023-04-23T00:48:19.308Z,51.37
2023-04-23T00:50:47.014Z,51.28
2023-04-23T00:53:14.304Z,51.07
2023-04-23T00:55:41.877Z,51.67
2023-04-23T00:58:09.265Z,51.79
2023-04-23T01:00:45.182Z,51.82
2023-04-23T01:03:13.392Z,51.89
2023-04-23T01:05:43.061Z,51.93
2023-04-23T01:08:15.268Z,52.30
2023-04-23T01:10:44.794Z,52.67
2023-04-23T01:13:15.653Z,52.60
2023-04-23T01:15:44.494Z,52.85
2023-04-23T01:18:12.893Z,53.07
2023-04-23T01:20:40.790Z,53.38
2023-04-23T01:23:08.190Z,53.62
2023-04-23T01:25:36.392Z,53.29
2023-04-23T01:28:04.860Z,53.67
2023-04-23T01:30:33.524Z,53.85
2023-04-23T01:33:02.644Z,53.27
2023-04-23T01:35:31.231Z,53.63
2023-04-23T01:38:00.887Z,54.22
2023-04-23T01:40:28.544Z,53.68
2023-04-23T01:42:56.787Z,54.53
2023-04-23T01:45:24.795Z,54.12
2023-04-23T01:47:53.798Z,55.06
2023-04-23T01:50:24.477Z,54.43
2023-04-23T01:52:51.836Z,55.25
2023-04-23T01:55:20.975Z,54.95
2023-04-23T01:57:48.404Z,55.06
2023-04-23T02:00:17.246Z,55.43
2023-04-23T02:02:45.154Z,55.77
2023-04-23T02:05:16.602Z,55.80
2023-04-23T02:07:45.068Z,56.49
2023-04-23T02:10:13.126Z,56.50
2023-04-23T02:12:40.508Z,55.96
2023-04-23T02:15:11.923Z,55.52
2023-04-23T02:17:41.970Z,55.69
2023-04-23T02:20:10.632Z,57.26
2023-04-23T02:22:40.919Z,57.54
2023-04-23T02:25:09.104Z,57.91
2023-04-23T02:27:36.848Z,57.95
2023-04-23T02:30:05.093Z,58.08
2023-04-23T02:32:32.536Z,57.90
2023-04-23T02:35:02.112Z,58.39
2023-04-23T02:37:29.421Z,59.20
2023-04-23T02:39:56.901Z,59.49
2023-04-23T02:42:24.154Z,59.38
2023-04-23T02:44:51.617Z,59.65
2023-04-23T02:47:19.332Z,59.94
2023-04-23T02:49:46.940Z,60.41
2023-04-23T02:52:14.145Z,60.73
2023-04-23T02:54:42.014Z,61.39
2023-04-23T02:57:09.634Z,60.46
2023-04-23T02:59:37.682Z,60.54
2023-04-23T03:02:04.960Z,60.63
2023-04-23T03:04:32.600Z,61.56
2023-04-23T03:06:59.762Z,62.40
2023-04-23T03:09:27.267Z,61.86
2023-04-23T03:11:54.558Z,61.68
2023-04-23T03:14:22.101Z,61.62
2023-04-23T03:16:49.310Z,61.95
2023-04-23T03:19:17.393Z,62.34
2023-04-23T03:21:44.620Z,62.30
2023-04-23T03:24:13.643Z,63.13
2023-04-23T03:26:41.268Z,62.93
2023-04-23T03:29:10.704Z,62.94
2023-04-23T03:31:38.256Z,64.65
2023-04-23T03:34:06.548Z,63.93
2023-04-23T03:36:35.617Z,63.12
2023-04-23T03:39:03.997Z,63.11
2023-04-23T03:41:43.537Z,63.42
2023-04-23T03:44:12.648Z,63.09
2023-04-23T03:46:42.570Z,63.36
2023-04-23T03:49:10.811Z,62.25
2023-04-23T03:51:38.282Z,62.01
2023-04-23T03:54:05.866Z,59.51
2023-04-23T03:56:41.187Z,58.79
2023-04-23T03:59:18.877Z,59.73
2023-04-23T04:01:48.760Z,60.04
2023-04-23T04:04:16.828Z,60.10
2023-04-23T04:06:44.160Z,61.04
2023-04-23T04:09:11.660Z,58.58
2023-04-23T04:11:39.000Z,59.15
2023-04-23T04:14:06.486Z,59.15
2023-04-23T04:16:33.746Z,58.54
2023-04-23T04:19:01.655Z,58.85
2023-04-23T04:21:28.805Z,59.99
2023-04-23T04:23:56.570Z,58.59
2023-04-23T04:26:23.777Z,54.19
2023-04-23T04:28:51.556Z,52.25
2023-04-23T04:31:20.567Z,52.81
2023-04-23T04:33:48.328Z,49.80
2023-04-23T04:36:15.700Z,49.47
2023-04-23T04:38:43.953Z,49.31
2023-04-23T04:41:11.565Z,46.67
2023-04-23T04:43:40.284Z,47.05
2023-04-23T04:46:07.759Z,44.15
2023-04-23T04:48:35.358Z,43.23
2023-04-23T04:51:02.663Z,39.74
2023-04-23T04:53:30.232Z,42.83
2023-04-23T04:55:57.407Z,40.42
2023-04-23T04:58:24.945Z,42.88
2023-04-23T05:00:52.298Z,36.30
2023-04-23T05:03:20.260Z,34.31
2023-04-23T05:05:48.750Z,36.05
2023-04-23T05:08:21.498Z,38.84
2023-04-23T05:10:50.520Z,36.44
2023-04-23T05:13:18.015Z,34.25
2023-04-23T05:15:46.291Z,35.22
2023-04-23T05:18:13.829Z,36.92
2023-04-23T05:20:41.711Z,36.84
2023-04-23T05:23:09.185Z,36.96
2023-04-23T05:25:36.337Z,37.39
2023-04-23T05:28:04.321Z,41.64
2023-04-23T05:30:31.547Z,43.00
2023-04-23T05:32:59.051Z,46.71
2023-04-23T05:35:26.269Z,47.99
2023-04-23T05:37:54.019Z,47.01
2023-04-23T05:40:21.249Z,46.52
2023-04-23T05:42:49.200Z,47.26
2023-04-23T05:45:16.454Z,47.90
2023-04-23T05:47:43.987Z,47.26
2023-04-23T05:50:11.708Z,44.63
2023-04-23T05:52:39.590Z,44.92
2023-04-23T05:55:09.827Z,45.21
2023-04-23T05:57:39.230Z,41.82
2023-04-23T06:00:09.861Z,41.69
2023-04-23T06:02:41.405Z,36.21
2023-04-23T06:05:09.503Z,32.13
2023-04-23T06:07:37.273Z,29.77
2023-04-23T06:10:05.718Z,24.83
2023-04-23T06:12:33.288Z,25.74
2023-04-23T06:15:00.577Z,28.37
2023-04-23T06:17:28.083Z,31.63
2023-04-23T06:19:55.390Z,23.49
2023-04-23T06:22:22.855Z,28.14
2023-04-23T06:24:50.058Z,27.51
2023-04-23T06:27:17.526Z,25.80
2023-04-23T06:29:49.413Z,29.17
2023-04-23T06:32:19.778Z,25.34
2023-04-23T06:35:00.392Z,29.19
2023-04-23T06:37:30.924Z,24.01
2023-04-23T06:39:59.574Z,23.73
2023-04-23T06:42:27.079Z,25.57
2023-04-23T06:45:26.631Z,25.57
2023-04-23T06:47:54.146Z,19.78
2023-04-23T06:50:21.426Z,19.23
2023-04-23T06:52:48.962Z,21.64
2023-04-23T06:55:16.257Z,25.16
2023-04-23T06:57:43.785Z,21.02
2023-04-23T07:00:11.917Z,24.73
2023-04-23T07:02:42.215Z,27.65
2023-04-23T07:05:10.649Z,31.91
2023-04-23T07:07:38.564Z,27.82
2023-04-23T07:10:07.152Z,25.81
2023-04-23T07:12:34.740Z,20.95
2023-04-23T07:15:02.284Z,19.37
2023-04-23T07:17:29.843Z,22.56
2023-04-23T07:19:57.377Z,17.95
2023-04-23T07:22:26.590Z,23.40
2023-04-23T07:24:54.282Z,28.92
2023-04-23T07:27:21.911Z,24.22
2023-04-23T07:29:49.097Z,24.64
2023-04-23T07:32:16.995Z,22.56
2023-04-23T07:34:44.426Z,21.25
2023-04-23T07:37:11.987Z,19.68
2023-04-23T07:39:40.035Z,21.42
2023-04-23T07:42:09.413Z,21.88
2023-04-23T07:44:36.684Z,23.22
2023-04-23T07:47:04.224Z,24.80
2023-04-23T07:49:31.467Z,23.09
2023-04-23T07:51:58.960Z,19.59
2023-04-23T07:54:26.727Z,23.04
2023-04-23T07:56:54.221Z,25.25
2023-04-23T07:59:21.597Z,24.71
2023-04-23T08:01:49.062Z,20.45
2023-04-23T08:04:16.368Z,23.99
2023-04-23T08:06:44.206Z,23.85
2023-04-23T08:09:11.473Z,23.60
2023-04-23T08:11:38.933Z,22.96
2023-04-23T08:14:06.289Z,21.18
2023-04-23T08:16:35.265Z,25.01
2023-04-23T08:19:06.257Z,22.07
2023-04-23T08:21:35.481Z,25.33
2023-04-23T08:24:03.285Z,25.00
2023-04-23T08:26:31.578Z,22.98
2023-04-23T08:29:00.743Z,20.43
2023-04-23T08:31:28.606Z,21.88
2023-04-23T08:33:56.210Z,23.82
2023-04-23T08:36:24.517Z,22.44
2023-04-23T08:38:51.685Z,19.91
2023-04-23T08:41:23.492Z,21.10
2023-04-23T08:44:09.727Z,20.13
2023-04-23T08:46:38.223Z,20.49
2023-04-23T08:49:08.545Z,23.67
2023-04-23T08:51:42.946Z,21.16
2023-04-23T08:54:15.952Z,24.86
2023-04-23T08:56:44.950Z,24.77
2023-04-23T08:59:12.239Z,23.94
2023-04-23T09:01:41.545Z,27.06
2023-04-23T09:04:10.140Z,25.67
2023-04-23T09:06:37.874Z,26.85
2023-04-23T09:09:07.468Z,23.30
2023-04-23T09:11:38.238Z,24.14
2023-04-23T09:14:05.525Z,24.36
2023-04-23T09:16:33.176Z,24.69
2023-04-23T09:19:00.528Z,24.22
2023-04-23T09:21:28.128Z,20.97
2023-04-23T09:23:55.244Z,21.24
2023-04-23T09:26:23.171Z,24.44
2023-04-23T09:28:53.697Z,21.55
2023-04-23T09:31:22.955Z,19.86
2023-04-23T09:33:54.547Z,25.11
2023-04-23T09:36:23.839Z,25.30
2023-04-23T09:38:55.961Z,26.87
2023-04-23T09:41:25.855Z,29.27
2023-04-23T09:43:56.456Z,25.29
2023-04-23T09:46:34.396Z,22.87
2023-04-23T09:49:07.959Z,22.74
2023-04-23T09:51:40.755Z,23.60
2023-04-23T09:54:12.894Z,24.75
2023-04-23T09:56:43.699Z,26.36
2023-04-23T09:59:32.076Z,25.26
2023-04-23T10:02:06.403Z,26.64
2023-04-23T10:04:34.848Z,26.33
2023-04-23T10:07:18.056Z,24.09
2023-04-23T10:09:47.309Z,27.10
2023-04-23T10:14:46.598Z,25.00
2023-04-23T10:17:14.126Z,24.52
2023-04-23T10:19:43.481Z,24.53
2023-04-23T10:22:19.623Z,24.75
2023-04-23T10:24:52.260Z,25.58
2023-04-23T10:29:53.931Z,24.53
2023-04-23T10:32:21.879Z,27.17
2023-04-23T10:34:49.482Z,26.75
2023-04-23T10:37:19.550Z,28.03
2023-04-23T10:39:54.516Z,26.40
2023-04-23T10:42:23.648Z,27.43
2023-04-23T10:45:00.918Z,26.41
2023-04-23T10:47:31.233Z,26.04
2023-04-23T10:49:58.489Z,25.60
2023-04-23T10:52:26.327Z,26.09
2023-04-23T10:55:00.214Z,28.82
2023-04-23T10:57:28.138Z,27.07
2023-04-23T10:59:56.467Z,27.79
2023-04-23T11:02:24.876Z,26.99
2023-04-23T11:05:01.521Z,26.25
2023-04-23T11:07:33.281Z,26.43
2023-04-23T11:10:14.711Z,27.78
2023-04-23T11:12:44.214Z,27.48
2023-04-23T11:15:12.619Z,27.18
2023-04-23T11:17:47.524Z,28.06
2023-04-23T11:20:16.383Z,27.99
2023-04-23T11:22:45.876Z,28.75
2023-04-23T11:25:20.584Z,28.59
2023-04-23T11:27:50.318Z,28.61
2023-04-23T11:30:22.514Z,28.22
2023-04-23T11:32:52.289Z,26.88
2023-04-23T11:35:21.880Z,25.81
2023-04-23T11:37:49.676Z,24.88
2023-04-23T11:40:21.149Z,24.74
2023-04-23T11:42:55.602Z,23.94
2023-04-23T11:45:28.526Z,22.98
2023-04-23T11:47:59.139Z,23.57
2023-04-23T11:50:33.347Z,23.94
2023-04-23T11:53:10.532Z,23.92
2023-04-23T11:55:44.159Z,23.92
2023-04-23T11:58:11.887Z,23.56
2023-04-23T12:00:39.108Z,23.88
2023-04-23T12:03:07.263Z,24.54
2023-04-23T12:05:42.422Z,24.82
2023-04-23T12:08:17.814Z,24.93
2023-04-23T12:10:49.905Z,24.37
2023-04-23T12:13:19.683Z,24.04
2023-04-23T12:15:48.557Z,24.47
2023-04-23T12:18:16.911Z,25.29
2023-04-23T12:20:44.620Z,25.19
2023-04-23T12:23:12.594Z,25.25
2023-04-23T12:25:42.369Z,25.03
2023-04-23T12:28:10.009Z,25.17
2023-04-23T12:30:44.056Z,25.80
2023-04-23T12:33:13.128Z,26.03
2023-04-23T12:35:51.681Z,26.53
2023-04-23T12:38:27.141Z,26.37
2023-04-23T12:40:59.400Z,26.44
2023-04-23T12:43:27.430Z,25.97
2023-04-23T12:45:55.074Z,26.03
2023-04-23T12:48:22.526Z,26.37
2023-04-23T12:50:49.713Z,26.08
2023-04-23T12:53:18.881Z,26.21
2023-04-23T12:55:46.244Z,25.93
2023-04-23T12:58:13.755Z,26.20
2023-04-23T13:00:41.039Z,26.44
2023-04-23T13:03:09.143Z,26.31
2023-04-23T13:05:36.587Z,26.28
2023-04-23T13:08:04.045Z,25.77
2023-04-23T13:10:31.284Z,26.09
2023-04-23T13:12:58.743Z,25.58
2023-04-23T13:15:27.120Z,25.71
2023-04-23T13:17:54.764Z,25.91
2023-04-23T13:20:22.130Z,25.82
2023-04-23T13:22:49.589Z,25.35
2023-04-23T13:25:16.816Z,25.71
2023-04-23T13:27:44.416Z,26.04
2023-04-23T13:30:12.235Z,26.71
2023-04-23T13:32:39.806Z,25.45
2023-04-23T13:35:07.738Z,25.43
2023-04-23T13:37:35.247Z,25.05
2023-04-23T13:40:02.865Z,25.38
2023-04-23T13:42:31.246Z,25.56
2023-04-23T13:44:58.459Z,25.33
2023-04-23T13:47:27.526Z,25.77
2023-04-23T13:49:54.858Z,25.39
2023-04-23T13:52:22.365Z,25.78
2023-04-23T13:54:50.929Z,25.74
2023-04-23T13:57:18.550Z,25.55
2023-04-23T13:59:45.789Z,25.39
2023-04-23T14:02:13.296Z,24.77
2023-04-23T14:04:40.690Z,24.51
2023-04-23T14:07:08.301Z,25.58
2023-04-23T14:09:35.474Z,25.41
2023-04-23T14:12:03.023Z,24.38
2023-04-23T14:14:30.393Z,24.72
2023-04-23T14:16:57.945Z,24.77
2023-04-23T14:19:25.222Z,25.29
2023-04-23T14:21:52.936Z,25.06
2023-04-23T14:24:27.605Z,25.63
2023-04-23T14:26:55.533Z,25.52
2023-04-23T14:29:50.694Z,25.31
2023-04-23T14:32:18.192Z,25.90
2023-04-23T14:34:45.466Z,25.59
2023-04-23T14:37:13.099Z,25.92
2023-04-23T14:39:41.547Z,25.57
2023-04-23T14:42:09.691Z,25.65
2023-04-23T14:44:36.983Z,25.22
2023-04-23T14:47:06.335Z,25.02
2023-04-23T14:49:33.781Z,25.52
2023-04-23T14:52:03.108Z,24.99
2023-04-23T14:54:30.253Z,25.33
2023-04-23T14:56:57.721Z,25.71
2023-04-23T14:59:25.094Z,26.24
2023-04-23T15:01:52.701Z,27.01
2023-04-23T15:04:20.142Z,27.65
2023-04-23T15:06:47.805Z,28.14
2023-04-23T15:09:15.031Z,28.55
2023-04-23T15:11:43.373Z,28.35
2023-04-23T15:14:37.258Z,27.79
2023-04-23T15:17:04.842Z,28.61
2023-04-23T15:19:32.984Z,28.77
2023-04-23T15:22:00.530Z,28.59
2023-04-23T15:24:27.797Z,27.74
2023-04-23T15:26:58.152Z,27.26
2023-04-23T15:29:25.507Z,26.70
2023-04-23T15:31:58.159Z,27.03
2023-04-23T15:34:25.703Z,26.71
2023-04-23T15:36:53.172Z,26.73
2023-04-23T15:39:20.416Z,26.94
2023-04-23T15:41:47.990Z,28.05
2023-04-23T15:44:15.466Z,28.22
2023-04-23T15:46:43.001Z,29.14
2023-04-23T15:49:10.516Z,29.36
2023-04-23T15:51:38.025Z,29.48
2023-04-23T15:54:08.453Z,29.42
2023-04-23T15:56:37.102Z,28.82
2023-04-23T15:59:04.492Z,28.57
2023-04-23T16:01:32.014Z,27.79
2023-04-23T16:06:29.581Z,27.58
2023-04-23T16:08:56.776Z,27.63
2023-04-23T16:11:27.684Z,27.68
2023-04-23T16:13:56.206Z,27.79
2023-04-23T16:16:23.755Z,27.84
2023-04-23T16:18:50.962Z,28.23
2023-04-23T16:21:18.442Z,28.83
2023-04-23T16:23:46.239Z,29.12
2023-04-23T16:26:13.727Z,28.18
2023-04-23T16:28:41.224Z,29.14
2023-04-23T16:31:08.798Z,30.01
2023-04-23T16:33:36.028Z,28.91
2023-04-23T16:36:03.940Z,28.94
2023-04-23T16:38:31.153Z,29.54
2023-04-23T16:40:58.699Z,29.43
2023-04-23T16:43:25.969Z,29.96
2023-04-23T16:45:53.553Z,30.69
2023-04-23T16:48:21.364Z,31.46
2023-04-23T16:50:48.917Z,31.43
2023-04-23T16:53:16.145Z,32.45
2023-04-23T16:55:43.806Z,37.50
2023-04-23T16:58:11.163Z,38.23
2023-04-23T17:00:38.717Z,41.55
2023-04-23T17:03:06.196Z,45.13
2023-04-23T17:05:34.470Z,46.75
2023-04-23T17:08:01.848Z,52.62
2023-04-23T17:10:29.553Z,54.60
2023-04-23T17:12:57.070Z,57.88
2023-04-23T17:15:24.797Z,59.51
2023-04-23T17:17:52.970Z,61.13
2023-04-23T17:20:22.120Z,61.54
2023-04-23T17:22:49.424Z,64.12
2023-04-23T17:25:16.911Z,63.73
2023-04-23T17:27:44.329Z,64.08
2023-04-23T17:30:12.295Z,65.04
2023-04-23T17:32:39.548Z,65.91
2023-04-23T17:35:10.686Z,63.98
2023-04-23T17:37:38.279Z,64.84
2023-04-23T17:40:06.452Z,66.51
2023-04-23T17:42:33.688Z,66.67
2023-04-23T17:45:01.422Z,70.31
2023-04-23T17:47:29.142Z,71.46
2023-04-23T17:49:56.752Z,72.95
2023-04-23T17:52:23.968Z,73.92
2023-04-23T17:54:51.467Z,74.89
2023-04-23T17:57:18.654Z,74.30
2023-04-23T17:59:46.121Z,74.35
2023-04-23T18:02:13.545Z,74.82
2023-04-23T18:04:41.355Z,74.66
2023-04-23T18:07:08.528Z,75.73
2023-04-23T18:09:36.110Z,75.45
2023-04-23T18:12:04.843Z,74.71
2023-04-23T18:14:32.584Z,76.14
2023-04-23T18:16:59.904Z,81.09
2023-04-23T18:19:27.487Z,78.82
2023-04-23T18:21:55.842Z,77.56
2023-04-23T18:24:23.360Z,78.30
2023-04-23T18:26:52.207Z,79.36
2023-04-23T18:29:19.868Z,80.11
2023-04-23T18:31:47.052Z,79.13
2023-04-23T18:34:18.808Z,81.56
2023-04-23T18:36:49.898Z,79.99
2023-04-23T18:39:17.379Z,80.58
2023-04-23T18:41:44.896Z,84.94
2023-04-23T18:44:15.373Z,82.11
2023-04-23T18:46:42.930Z,81.06
2023-04-23T18:49:29.282Z,81.74
2023-04-23T18:51:56.885Z,80.95
2023-04-23T18:54:25.951Z,81.28
2023-04-23T18:56:55.657Z,80.75
2023-04-23T18:59:23.309Z,80.64
2023-04-23T19:01:50.757Z,80.36
2023-04-23T19:04:18.667Z,80.16
2023-04-23T19:06:45.939Z,80.07
2023-04-23T19:09:13.413Z,80.22
2023-04-23T19:11:40.603Z,80.35
2023-04-23T19:14:08.109Z,81.07
2023-04-23T19:16:35.501Z,80.73
2023-04-23T19:19:03.164Z,80.83
2023-04-23T19:21:30.380Z,80.65
2023-04-23T19:23:57.892Z,81.54
2023-04-23T19:26:25.178Z,82.37
2023-04-23T19:28:52.661Z,83.48
2023-04-23T19:31:19.976Z,84.47
2023-04-23T19:33:47.728Z,84.20
2023-04-23T19:36:14.946Z,84.68
2023-04-23T19:38:42.496Z,86.95
2023-04-23T19:41:09.811Z,85.23
2023-04-23T19:43:37.404Z,85.14
2023-04-23T19:46:04.643Z,85.62
2023-04-23T19:48:32.473Z,85.43
2023-04-23T19:50:59.703Z,87.52
2023-04-23T19:53:27.646Z,86.72
2023-04-23T19:55:55.024Z,86.34
2023-04-23T19:58:23.209Z,85.87
2023-04-23T20:00:51.017Z,85.62
2023-04-23T20:03:18.836Z,88.03
2023-04-23T20:05:48.244Z,87.10
2023-04-23T20:08:25.847Z,86.86
2023-04-23T20:10:53.772Z,87.01
2023-04-23T20:13:21.561Z,86.53
2023-04-23T20:15:50.151Z,86.40
2023-04-23T20:18:18.550Z,86.52
2023-04-23T20:20:45.788Z,87.08
2023-04-23T20:23:13.385Z,87.58
2023-04-23T20:25:40.604Z,87.84
2023-04-23T20:28:10.958Z,87.29
2023-04-23T20:30:38.186Z,87.74
2023-04-23T20:33:06.080Z,88.16
2023-04-23T20:35:34.514Z,90.17
2023-04-23T20:38:02.286Z,89.34
2023-04-23T20:40:34.512Z,89.46
2023-04-23T20:43:02.249Z,89.64
2023-04-23T20:45:29.531Z,90.55
2023-04-23T20:47:57.601Z,89.34
2023-04-23T20:50:25.016Z,90.74
2023-04-23T20:52:52.519Z,90.16
2023-04-23T20:55:19.857Z,89.79
2023-04-23T20:57:47.341Z,90.07
2023-04-23T21:00:15.032Z,89.81
2023-04-23T21:02:42.794Z,89.22
2023-04-23T21:05:12.173Z,89.51
2023-04-23T21:07:39.833Z,89.64
2023-04-23T21:10:07.559Z,90.40
2023-04-23T21:12:35.347Z,91.34
2023-04-23T21:15:02.553Z,91.54
2023-04-23T21:17:30.078Z,96.96
2023-04-23T21:19:57.407Z,98.60
2023-04-23T21:22:24.869Z,100.00
2023-04-23T21:24:52.078Z,100.00
2023-04-23T21:27:21.982Z,100.00
2023-04-23T21:29:49.468Z,100.00
2023-04-23T21:32:17.263Z,100.00
2023-04-23T21:34:44.534Z,100.00
2023-04-23T21:37:12.054Z,100.00
2023-04-23T21:39:39.212Z,100.00
2023-04-23T21:42:07.459Z,100.00
2023-04-23T21:44:36.687Z,100.00
2023-04-23T21:47:04.651Z,100.00
2023-04-23T21:49:32.847Z,100.00
2023-04-23T21:52:02.280Z,100.00
2023-04-23T21:54:29.899Z,100.00
2023-04-23T21:56:57.381Z,100.00
2023-04-23T21:59:24.861Z,100.00
2023-04-23T22:01:52.426Z,100.00
2023-04-23T22:04:20.696Z,100.00
2023-04-23T22:06:48.439Z,100.00
2023-04-23T22:09:15.923Z,100.00
2023-04-23T22:11:55.275Z,100.00
2023-04-23T22:14:28.687Z,100.00
2023-04-23T22:16:58.745Z,100.00
2023-04-23T22:19:26.135Z,100.00
2023-04-23T22:21:55.009Z,100.00
2023-04-23T22:24:22.792Z,100.00
2023-04-23T22:26:50.380Z,100.00
2023-04-23T22:29:17.611Z,100.00
2023-04-23T22:31:45.142Z,100.00
2023-04-23T22:34:12.411Z,100.00
2023-04-23T22:36:43.166Z,100.00
2023-04-23T22:39:10.889Z,100.00
2023-04-23T22:41:40.377Z,100.00
2023-04-23T22:44:09.412Z,100.00
2023-04-23T22:46:37.406Z,100.00
2023-04-23T22:49:07.887Z,100.00
2023-04-23T22:51:36.082Z,100.00
2023-04-23T22:54:03.387Z,100.00
2023-04-23T22:56:30.931Z,100.00
2023-04-23T22:58:58.112Z,100.00
2023-04-23T23:01:26.456Z,100.00
2023-04-23T23:03:54.313Z,100.00
2023-04-23T23:06:22.212Z,100.00
2023-04-23T23:08:49.439Z,100.00
2023-04-23T23:11:17.006Z,100.00
2023-04-23T23:13:45.434Z,100.00
2023-04-23T23:16:12.952Z,100.00
2023-04-23T23:18:40.310Z,100.00
2023-04-23T23:21:08.019Z,100.00
2023-04-23T23:23:35.366Z,100.00
2023-04-23T23:26:02.822Z,100.00
2023-04-23T23:28:29.981Z,100.00
2023-04-23T23:30:57.926Z,100.00
2023-04-23T23:33:25.261Z,100.00
2023-04-23T23:35:52.723Z,100.00
2023-04-23T23:38:19.890Z,100.00
2023-04-23T23:40:47.546Z,100.00
2023-04-23T23:43:14.759Z,100.00
2023-04-23T23:45:42.185Z,100.00
2023-04-23T23:48:09.757Z,100.00
2023-04-23T23:50:37.266Z,100.00
2023-04-23T23:53:04.425Z,100.00
2023-04-23T23:55:32.083Z,100.00
2023-04-23T23:57:59.788Z,100.00
